Time;durP1;ratioP1;P1;durP2;ratioP2;P2;SDS_P1;SDS_P2;PMS_P1;PMS_P2;Temp;Humidity;BMP_temperature;BMP_pressure;BME280_temperature;BME280_humidity;BME280_pressure;Samples;Min_cycle;Max_cycle;Signal;HPM_P1;HPM_P2
2024/01/29 00:01:38;;;;;;;7.10;5.10;;;10.40;99.90;;;;;;5091801;28;20035;-67
2024/01/29 00:04:04;;;;;;;5.30;4.68;;;10.30;99.90;;;;;;5095932;28;20028;-67
2024/01/29 00:06:29;;;;;;;6.65;5.38;;;10.30;99.90;;;;;;5113447;28;20500;-67
2024/01/29 00:08:56;;;;;;;6.20;5.10;;;10.20;99.90;;;;;;5115875;28;20113;-67
2024/01/29 00:11:22;;;;;;;8.48;5.38;;;10.20;99.90;;;;;;5095048;28;20032;-67
2024/01/29 00:13:48;;;;;;;9.25;5.43;;;10.20;99.90;;;;;;5095358;28;20030;-67
2024/01/29 00:16:13;;;;;;;6.53;5.53;;;10.20;99.90;;;;;;5095549;28;20058;-67
2024/01/29 00:18:39;;;;;;;6.38;5.25;;;10.10;99.90;;;;;;5095616;28;20024;-67
2024/01/29 00:21:04;;;;;;;6.18;5.55;;;10.10;99.90;;;;;;5095108;28;20046;-67
2024/01/29 00:23:30;;;;;;;6.07;5.35;;;10.00;99.90;;;;;;5095268;28;20031;-67
2024/01/29 00:25:56;;;;;;;6.53;5.38;;;10.00;99.90;;;;;;5094813;28;20107;-67
2024/01/29 00:28:22;;;;;;;7.80;5.43;;;10.00;99.90;;;;;;5093818;28;20087;-67
2024/01/29 00:30:48;;;;;;;7.57;5.70;;;10.10;99.90;;;;;;5095419;28;20028;-67
2024/01/29 00:33:13;;;;;;;9.18;6.10;;;10.00;99.90;;;;;;5094980;28;20050;-67
2024/01/29 00:35:39;;;;;;;7.60;5.50;;;10.00;99.90;;;;;;5095074;28;20024;-67
2024/01/29 00:38:05;;;;;;;6.65;5.53;;;10.00;99.90;;;;;;5094608;28;20034;-67
2024/01/29 00:40:33;;;;;;;7.18;5.57;;;10.00;99.90;;;;;;5094695;28;20048;-67
2024/01/29 00:42:59;;;;;;;9.55;5.70;;;10.00;99.90;;;;;;5094941;28;20028;-67
2024/01/29 00:45:25;;;;;;;6.53;5.70;;;9.90;99.90;;;;;;5094863;28;20036;-67
2024/01/29 00:47:50;;;;;;;8.43;5.75;;;9.90;99.90;;;;;;5094634;28;20032;-67
2024/01/29 00:50:16;;;;;;;8.43;5.72;;;9.90;99.90;;;;;;5094625;28;20024;-67
2024/01/29 00:52:42;;;;;;;8.15;5.85;;;9.90;99.90;;;;;;5094540;28;20438;-67
2024/01/29 00:55:07;;;;;;;6.20;5.60;;;9.90;99.90;;;;;;5094594;28;20027;-67
2024/01/29 00:57:33;;;;;;;9.55;6.05;;;9.90;99.90;;;;;;5094218;28;20539;-67
2024/01/29 00:59:59;;;;;;;8.10;5.97;;;9.90;99.90;;;;;;5094798;28;20085;-67
2024/01/29 01:02:25;;;;;;;7.15;5.78;;;9.90;99.90;;;;;;5094587;28;20024;-67
2024/01/29 01:04:50;;;;;;;7.65;5.93;;;9.80;99.90;;;;;;5093192;28;20573;-67
2024/01/29 01:07:16;;;;;;;7.00;5.93;;;9.80;99.90;;;;;;5094375;28;20103;-67
2024/01/29 01:09:42;;;;;;;7.95;5.90;;;9.90;99.90;;;;;;5093701;28;20086;-66
2024/01/29 01:12:07;;;;;;;8.52;5.60;;;10.10;99.90;;;;;;5094305;28;20060;-67
2024/01/29 01:14:33;;;;;;;7.00;5.60;;;10.20;99.90;;;;;;5094598;28;20020;-67
2024/01/29 01:16:59;;;;;;;6.90;5.07;;;10.20;99.90;;;;;;5094214;28;20028;-67
2024/01/29 01:19:24;;;;;;;7.55;4.88;;;10.30;99.90;;;;;;5094086;28;20390;-67
2024/01/29 01:21:50;;;;;;;6.03;5.40;;;10.50;99.90;;;;;;5094338;28;20060;-67
2024/01/29 01:24:16;;;;;;;5.13;4.60;;;10.50;99.90;;;;;;5093859;28;20024;-67
2024/01/29 01:26:42;;;;;;;9.73;5.22;;;10.60;99.90;;;;;;5094046;28;20082;-67
2024/01/29 01:29:07;;;;;;;6.60;5.25;;;10.50;99.90;;;;;;5093841;28;20099;-67
2024/01/29 01:31:33;;;;;;;9.63;5.30;;;10.40;99.90;;;;;;5094424;28;20065;-67
2024/01/29 01:33:59;;;;;;;8.60;5.38;;;10.20;99.90;;;;;;5093834;28;20382;-67
2024/01/29 01:36:24;;;;;;;7.32;5.22;;;10.20;99.90;;;;;;5093225;28;20097;-67
2024/01/29 01:38:51;;;;;;;8.57;5.75;;;10.10;99.90;;;;;;5093320;28;20461;-67
2024/01/29 01:41:16;;;;;;;7.43;5.22;;;10.00;99.90;;;;;;5093629;28;20091;-67
2024/01/29 01:43:42;;;;;;;6.60;5.30;;;10.00;99.90;;;;;;5093637;28;20059;-67
2024/01/29 01:46:26;;;;;;;8.35;5.75;;;9.90;99.90;;;;;;5093882;28;20035;-67
2024/01/29 01:48:53;;;;;;;9.23;5.75;;;9.90;99.90;;;;;;5093961;28;20485;-67
2024/01/29 01:51:20;;;;;;;8.52;6.13;;;9.80;99.90;;;;;;5093446;28;20027;-67
2024/01/29 01:53:48;;;;;;;10.13;5.70;;;9.80;99.90;;;;;;5093313;28;20386;-67
2024/01/29 01:56:15;;;;;;;7.60;5.55;;;9.80;99.90;;;;;;5093781;28;20020;-67
2024/01/29 01:58:41;;;;;;;8.93;6.20;;;9.80;99.90;;;;;;5094708;28;20721;-67
2024/01/29 02:01:08;;;;;;;7.85;6.25;;;9.80;99.90;;;;;;5096704;28;20035;-67
2024/01/29 02:03:33;;;;;;;10.13;6.28;;;9.80;99.90;;;;;;5093877;28;20027;-67
2024/01/29 02:05:59;;;;;;;8.93;6.20;;;9.80;99.90;;;;;;5093246;28;20032;-67
2024/01/29 02:08:25;;;;;;;9.48;6.50;;;9.80;99.90;;;;;;5092994;28;20099;-67
2024/01/29 02:10:53;;;;;;;8.77;6.30;;;9.90;99.90;;;;;;5093008;28;20031;-67
2024/01/29 02:13:18;;;;;;;8.63;6.43;;;9.80;99.90;;;;;;5093309;28;20102;-67
2024/01/29 02:15:44;;;;;;;7.55;5.65;;;9.80;99.90;;;;;;5093434;28;20059;-67
2024/01/29 02:18:10;;;;;;;8.52;5.95;;;9.80;99.90;;;;;;5093170;28;20036;-67
2024/01/29 02:20:36;;;;;;;8.55;6.28;;;9.70;99.90;;;;;;5092866;28;20383;-67
2024/01/29 02:23:02;;;;;;;8.85;6.03;;;9.70;99.90;;;;;;5092636;28;20024;-67
2024/01/29 02:25:28;;;;;;;10.05;5.90;;;9.70;99.90;;;;;;5092494;28;20031;-67
2024/01/29 02:27:54;;;;;;;9.05;6.00;;;9.70;99.90;;;;;;5092888;28;20020;-67
2024/01/29 02:30:19;;;;;;;9.38;6.43;;;9.70;99.90;;;;;;5092696;28;20024;-67
2024/01/29 02:32:45;;;;;;;8.35;5.70;;;9.80;99.90;;;;;;5093290;28;20020;-67
2024/01/29 02:35:11;;;;;;;7.63;5.85;;;9.70;99.90;;;;;;5092636;28;20032;-67
2024/01/29 02:37:36;;;;;;;8.63;5.97;;;9.70;99.90;;;;;;5092379;28;20083;-67
2024/01/29 02:40:04;;;;;;;8.52;5.78;;;9.70;99.90;;;;;;5091202;28;20386;-67
2024/01/29 02:42:30;;;;;;;7.10;5.85;;;9.70;99.90;;;;;;5092816;28;20103;-67
2024/01/29 02:44:55;;;;;;;8.13;5.82;;;9.70;99.90;;;;;;5092654;28;20451;-67
2024/01/29 02:47:21;;;;;;;7.80;6.00;;;9.70;99.90;;;;;;5092572;28;20032;-67
2024/01/29 02:49:47;;;;;;;7.28;5.90;;;9.70;99.90;;;;;;5092303;28;20040;-67
2024/01/29 02:52:13;;;;;;;8.18;5.60;;;9.70;99.90;;;;;;5092520;28;20440;-67
2024/01/29 02:54:39;;;;;;;7.70;6.05;;;9.70;99.90;;;;;;5092033;28;20049;-67
2024/01/29 02:57:05;;;;;;;7.25;5.43;;;9.80;99.90;;;;;;5092704;28;20028;-68
2024/01/29 02:59:31;;;;;;;5.85;5.10;;;9.90;99.90;;;;;;5092401;28;20397;-67
2024/01/29 03:01:57;;;;;;;6.25;5.05;;;10.10;99.90;;;;;;5092343;28;20025;-66
2024/01/29 03:04:23;;;;;;;8.23;5.15;;;10.20;99.90;;;;;;5092209;28;20024;-67
2024/01/29 03:06:49;;;;;;;6.80;4.75;;;10.30;99.90;;;;;;5091996;28;20392;-67
2024/01/29 03:09:15;;;;;;;7.03;4.57;;;10.30;99.90;;;;;;5092502;28;20470;-67
2024/01/29 03:11:41;;;;;;;6.88;4.40;;;10.40;99.90;;;;;;5092284;28;20032;-67
2024/01/29 03:14:08;;;;;;;7.43;4.68;;;10.40;99.90;;;;;;5092305;28;20118;-67
2024/01/29 03:16:33;;;;;;;6.82;5.10;;;10.40;99.90;;;;;;5092100;28;20032;-67
2024/01/29 03:18:59;;;;;;;10.95;5.00;;;10.30;99.90;;;;;;5092582;28;20030;-67
2024/01/29 03:21:27;;;;;;;6.43;4.65;;;10.20;99.90;;;;;;5091649;28;20551;-67
2024/01/29 03:23:53;;;;;;;6.40;4.63;;;10.10;99.90;;;;;;5092065;28;20413;-67
2024/01/29 03:26:19;;;;;;;7.70;4.95;;;10.00;99.90;;;;;;5092215;28;20024;-67
2024/01/29 03:28:45;;;;;;;7.82;4.93;;;9.90;99.90;;;;;;5091565;28;20527;-67
2024/01/29 03:31:10;;;;;;;7.80;5.20;;;9.80;99.90;;;;;;5090556;28;20520;-67
2024/01/29 03:33:36;;;;;;;8.75;5.18;;;9.80;99.90;;;;;;5092406;28;20066;-67
2024/01/29 03:36:06;;;;;;;7.53;5.22;;;9.70;99.90;;;;;;5091649;28;20501;-67
2024/01/29 03:38:32;;;;;;;7.60;5.45;;;9.60;99.90;;;;;;5094967;28;20028;-67
2024/01/29 03:40:58;;;;;;;8.70;5.97;;;9.70;99.90;;;;;;5094521;28;20141;-67
2024/01/29 03:43:24;;;;;;;6.88;5.60;;;9.60;99.90;;;;;;5096062;28;20032;-67
2024/01/29 03:45:51;;;;;;;9.13;5.88;;;9.50;99.90;;;;;;5096170;28;20020;-67
2024/01/29 03:48:17;;;;;;;8.07;6.05;;;9.60;99.90;;;;;;5095752;28;20097;-66
2024/01/29 03:50:43;;;;;;;7.88;5.78;;;9.60;99.90;;;;;;5095730;28;20032;-67
2024/01/29 03:53:09;;;;;;;10.82;5.43;;;9.60;99.90;;;;;;5095813;28;20016;-67
2024/01/29 03:55:35;;;;;;;8.45;5.80;;;9.60;99.90;;;;;;5104403;28;20481;-67
2024/01/29 03:58:01;;;;;;;8.70;5.70;;;9.50;99.90;;;;;;5116052;27;20116;-67
2024/01/29 04:00:26;;;;;;;10.75;5.75;;;9.50;99.90;;;;;;5106801;28;20046;-67
2024/01/29 04:02:52;;;;;;;8.13;5.82;;;9.50;99.90;;;;;;5095578;28;20028;-67
2024/01/29 04:05:18;;;;;;;9.95;5.90;;;9.50;99.90;;;;;;5095583;28;20419;-67
2024/01/29 04:07:45;;;;;;;7.00;5.55;;;9.50;99.90;;;;;;5095460;28;20027;-67
2024/01/29 04:10:11;;;;;;;9.70;6.05;;;9.40;99.90;;;;;;5095347;28;20390;-67
2024/01/29 04:12:36;;;;;;;9.80;6.25;;;9.40;99.90;;;;;;5095474;28;20053;-67
2024/01/29 04:15:03;;;;;;;9.05;5.75;;;9.40;99.90;;;;;;5095334;28;20103;-67
2024/01/29 04:17:29;;;;;;;8.50;5.90;;;9.40;99.90;;;;;;5095463;28;20028;-67
2024/01/29 04:19:54;;;;;;;10.85;5.70;;;9.40;99.90;;;;;;5095129;28;20031;-67
2024/01/29 04:22:20;;;;;;;10.07;6.22;;;9.30;99.90;;;;;;5095434;28;20036;-68
2024/01/29 04:24:46;;;;;;;8.52;6.57;;;9.40;99.90;;;;;;5095419;28;20153;-67
2024/01/29 04:27:12;;;;;;;7.40;5.97;;;9.40;99.90;;;;;;5095098;28;20409;-67
2024/01/29 04:29:38;;;;;;;7.40;6.22;;;9.40;99.90;;;;;;5095083;28;20016;-67
2024/01/29 04:32:04;;;;;;;6.85;5.80;;;9.40;99.90;;;;;;5095199;28;20032;-67
2024/01/29 04:34:30;;;;;;;7.03;6.28;;;9.40;99.90;;;;;;5094991;28;20022;-67
2024/01/29 04:36:55;;;;;;;10.82;6.53;;;9.40;99.90;;;;;;5094933;28;20095;-67
2024/01/29 04:39:21;;;;;;;8.88;6.28;;;9.40;99.90;;;;;;5094840;28;20027;-67
2024/01/29 04:41:47;;;;;;;8.13;6.35;;;9.50;99.90;;;;;;5093729;28;20460;-67
2024/01/29 04:44:14;;;;;;;8.95;6.30;;;9.50;99.90;;;;;;5093967;28;20062;-67
2024/01/29 04:46:40;;;;;;;7.63;5.95;;;9.60;99.90;;;;;;5093213;28;20051;-67
2024/01/29 04:49:06;;;;;;;7.00;5.78;;;9.80;99.90;;;;;;5093185;28;20052;-67
2024/01/29 04:51:32;;;;;;;8.68;5.68;;;10.00;99.90;;;;;;5093572;28;20458;-67
2024/01/29 04:53:57;;;;;;;9.98;5.47;;;10.20;99.90;;;;;;5093649;28;20027;-67
2024/01/29 04:56:23;;;;;;;7.50;5.35;;;10.30;99.90;;;;;;5093503;28;20028;-67
2024/01/29 04:58:48;;;;;;;8.13;5.03;;;10.30;99.90;;;;;;5093659;28;20024;-67
2024/01/29 05:01:14;;;;;;;7.25;5.28;;;10.40;99.90;;;;;;5091232;28;20040;-67
2024/01/29 05:03:40;;;;;;;8.45;5.00;;;10.50;99.90;;;;;;5093423;28;20012;-67
2024/01/29 05:06:06;;;;;;;8.07;5.15;;;10.50;99.90;;;;;;5092158;28;20032;-67
2024/01/29 05:08:31;;;;;;;8.73;5.13;;;10.40;99.90;;;;;;5093323;28;20028;-68
2024/01/29 05:10:57;;;;;;;8.57;5.07;;;10.30;99.90;;;;;;5093511;28;20467;-67
2024/01/29 05:13:23;;;;;;;8.23;5.53;;;10.20;99.90;;;;;;5093112;28;20492;-67
2024/01/29 05:15:48;;;;;;;7.85;5.47;;;10.10;99.90;;;;;;5093336;28;20463;-67
2024/01/29 05:18:14;;;;;;;9.07;5.70;;;10.10;99.90;;;;;;5093043;28;20244;-67
2024/01/29 05:20:40;;;;;;;8.02;5.60;;;10.00;99.90;;;;;;5092291;28;20565;-67
2024/01/29 05:23:06;;;;;;;8.73;6.07;;;10.00;99.90;;;;;;5093192;28;20099;-67
2024/01/29 05:25:32;;;;;;;8.68;6.13;;;10.00;99.90;;;;;;5093391;28;20470;-67
2024/01/29 05:27:57;;;;;;;7.65;5.80;;;9.90;99.90;;;;;;5092850;28;20149;-67
2024/01/29 05:30:23;;;;;;;8.95;5.93;;;9.90;99.90;;;;;;5091280;28;20484;-67
2024/01/29 05:32:49;;;;;;;7.78;6.20;;;9.90;99.90;;;;;;5092911;28;20462;-67
2024/01/29 05:35:15;;;;;;;8.45;5.82;;;9.80;99.90;;;;;;5093095;28;20024;-68
2024/01/29 05:37:41;;;;;;;8.63;5.97;;;9.80;99.90;;;;;;5092779;28;20478;-67
2024/01/29 05:40:09;;;;;;;9.37;6.30;;;9.80;99.90;;;;;;5046546;28;1312816;-67
2024/01/29 05:42:35;;;;;;;8.75;6.05;;;9.80;99.90;;;;;;5094072;28;20032;-67
2024/01/29 05:45:01;;;;;;;7.97;6.30;;;9.80;99.90;;;;;;5093389;28;20514;-67
2024/01/29 05:47:26;;;;;;;9.70;6.40;;;9.80;99.90;;;;;;5108793;28;20113;-67
2024/01/29 05:49:52;;;;;;;8.77;5.90;;;9.80;99.90;;;;;;5110871;28;20016;-67
2024/01/29 05:52:18;;;;;;;8.25;5.82;;;9.80;99.90;;;;;;5093645;28;20024;-67
2024/01/29 05:54:43;;;;;;;8.45;6.10;;;9.80;99.90;;;;;;5093870;28;20050;-67
2024/01/29 05:57:12;;;;;;;10.05;6.90;;;9.80;99.90;;;;;;5093244;28;20063;-67
2024/01/29 05:59:41;;;;;;;11.68;6.38;;;9.80;99.90;;;;;;5092184;28;20028;-67
2024/01/29 06:02:07;;;;;;;9.68;6.30;;;9.80;99.90;;;;;;5093369;28;20036;-67
2024/01/29 06:04:33;;;;;;;7.30;6.10;;;9.80;99.90;;;;;;5093668;28;20099;-67
2024/01/29 06:06:59;;;;;;;9.45;6.68;;;9.80;99.90;;;;;;5093022;28;20120;-67
2024/01/29 06:09:24;;;;;;;8.82;6.28;;;9.80;99.90;;;;;;5092001;28;20052;-67
2024/01/29 06:11:50;;;;;;;9.20;6.45;;;9.80;99.90;;;;;;5092886;28;20028;-68
2024/01/29 06:14:16;;;;;;;8.20;5.88;;;9.80;99.90;;;;;;5092976;28;20036;-68
2024/01/29 06:16:45;;;;;;;9.85;6.25;;;9.70;99.90;;;;;;5092942;28;20107;-67
2024/01/29 06:19:15;;;;;;;8.70;6.10;;;9.70;99.90;;;;;;5092775;28;20111;-67
2024/01/29 06:21:44;;;;;;;8.30;6.45;;;9.70;99.90;;;;;;5091776;28;20494;-67
2024/01/29 06:24:10;;;;;;;9.02;6.60;;;9.70;99.90;;;;;;5083555;28;20024;-67
2024/01/29 06:26:36;;;;;;;9.82;6.28;;;9.70;99.90;;;;;;5072487;28;20568;-68
2024/01/29 06:29:02;;;;;;;8.73;6.38;;;9.70;99.90;;;;;;5072281;28;20461;-67
2024/01/29 06:31:27;;;;;;;9.23;6.18;;;9.70;99.90;;;;;;5087844;28;20482;-67
2024/01/29 06:33:54;;;;;;;10.05;5.90;;;9.60;99.90;;;;;;5092689;28;20023;-67
2024/01/29 06:36:20;;;;;;;9.00;5.88;;;9.80;99.90;;;;;;5092353;28;20052;-67
2024/01/29 06:38:46;;;;;;;8.85;6.20;;;10.00;99.90;;;;;;5092837;28;20038;-67
2024/01/29 06:41:22;;;;;;;8.15;6.50;;;10.10;99.90;;;;;;5092256;28;20127;-67
2024/01/29 06:43:48;;;;;;;9.45;5.72;;;10.20;99.90;;;;;;5091939;28;20028;-67
2024/01/29 06:46:14;;;;;;;9.30;6.50;;;10.30;99.90;;;;;;5092525;28;20031;-67
2024/01/29 06:48:40;;;;;;;7.55;5.82;;;10.30;99.90;;;;;;5092205;28;20020;-67
2024/01/29 06:51:05;;;;;;;8.00;5.53;;;10.30;99.90;;;;;;5092174;28;20480;-67
2024/01/29 06:53:33;;;;;;;8.15;5.63;;;10.30;99.90;;;;;;5092479;28;20020;-67
2024/01/29 06:55:59;;;;;;;9.57;5.63;;;10.10;99.90;;;;;;5092164;28;20048;-67
2024/01/29 06:58:25;;;;;;;9.90;5.45;;;9.90;99.90;;;;;;5090724;28;20027;-67
2024/01/29 07:00:51;;;;;;;8.18;5.72;;;9.80;99.90;;;;;;5092089;28;20126;-67
2024/01/29 07:03:18;;;;;;;7.25;6.10;;;9.70;99.90;;;;;;5092270;28;20067;-67
2024/01/29 07:05:49;;;;;;;7.30;5.82;;;9.60;99.90;;;;;;5092042;28;20028;-67
2024/01/29 07:08:16;;;;;;;8.95;6.57;;;9.50;99.90;;;;;;5092216;28;20388;-67
2024/01/29 07:10:42;;;;;;;8.43;6.47;;;9.50;99.90;;;;;;5092157;28;20464;-67
2024/01/29 07:13:07;;;;;;;11.25;6.70;;;9.40;99.90;;;;;;5091716;28;20095;-66
2024/01/29 07:15:33;;;;;;;9.32;6.72;;;9.40;99.90;;;;;;5091687;28;20032;-67
2024/01/29 07:17:59;;;;;;;8.60;6.93;;;9.30;99.90;;;;;;5091960;28;20103;-67
2024/01/29 07:20:27;;;;;;;8.90;7.10;;;9.30;99.90;;;;;;5091974;28;20036;-67
2024/01/29 07:22:53;;;;;;;9.10;7.10;;;9.30;99.90;;;;;;5092136;28;20024;-67
2024/01/29 07:25:19;;;;;;;7.53;6.72;;;9.20;99.90;;;;;;5091849;28;20081;-67
2024/01/29 07:27:45;;;;;;;9.43;7.22;;;9.20;99.90;;;;;;5091456;28;20440;-67
2024/01/29 07:30:11;;;;;;;9.00;7.20;;;9.20;99.90;;;;;;5092287;28;20032;-67
2024/01/29 07:32:37;;;;;;;9.20;6.18;;;9.20;99.90;;;;;;5091740;28;20077;-66
2024/01/29 07:35:03;;;;;;;9.98;6.93;;;9.20;99.90;;;;;;5091719;28;20032;-67
2024/01/29 07:37:29;;;;;;;10.65;7.28;;;9.20;99.90;;;;;;5092341;28;20016;-67
2024/01/29 07:39:56;;;;;;;8.65;7.40;;;9.20;99.90;;;;;;5109182;28;20065;-66
2024/01/29 07:42:22;;;;;;;9.38;7.38;;;9.20;99.90;;;;;;5091789;28;20594;-67
2024/01/29 07:44:48;;;;;;;9.25;7.07;;;9.20;99.90;;;;;;5091803;28;20470;-67
2024/01/29 07:47:14;;;;;;;9.15;6.88;;;9.10;99.90;;;;;;5091596;28;20052;-67
2024/01/29 07:49:39;;;;;;;10.13;7.30;;;9.10;99.90;;;;;;5091723;28;20079;-67
2024/01/29 07:52:05;;;;;;;10.27;7.30;;;9.10;99.90;;;;;;5091512;28;20490;-66
2024/01/29 07:54:31;;;;;;;10.20;7.10;;;9.10;99.90;;;;;;5091663;28;20375;-66
2024/01/29 07:56:57;;;;;;;8.50;7.30;;;9.10;99.90;;;;;;5091191;28;20034;-67
2024/01/29 07:59:23;;;;;;;8.45;7.20;;;9.10;99.90;;;;;;5091469;28;20043;-67
2024/01/29 08:01:49;;;;;;;11.82;7.75;;;9.10;99.90;;;;;;5091862;28;20058;-67
2024/01/29 08:04:14;;;;;;;9.00;7.68;;;9.10;99.90;;;;;;5091771;28;20146;-67
2024/01/29 08:06:40;;;;;;;9.82;7.70;;;9.20;99.90;;;;;;5090288;28;20165;-67
2024/01/29 08:09:06;;;;;;;9.55;8.07;;;9.20;99.90;;;;;;5091733;28;20028;-67
2024/01/29 08:11:32;;;;;;;14.07;8.68;;;9.20;99.90;;;;;;5090885;28;20020;-65
2024/01/29 08:13:58;;;;;;;10.50;9.10;;;9.20;99.90;;;;;;5091727;28;20470;-66
2024/01/29 08:16:24;;;;;;;10.60;8.73;;;9.30;99.90;;;;;;5091972;28;20028;-65
2024/01/29 08:18:50;;;;;;;10.85;8.45;;;9.20;99.90;;;;;;5091610;28;20035;-66
2024/01/29 08:21:16;;;;;;;11.55;9.15;;;9.30;99.90;;;;;;5091366;28;20067;-65
2024/01/29 08:40:38;;;;;;;6.65;5.95;;;9.80;99.90;;;;;;5089795;27;20454;-67
2024/01/29 08:43:03;;;;;;;7.82;5.68;;;10.60;99.90;;;;;;5089170;28;20082;-67
2024/01/29 08:45:29;;;;;;;7.28;5.40;;;10.60;99.90;;;;;;5089061;28;20424;-67
2024/01/29 08:47:54;;;;;;;18.15;6.28;;;10.70;99.90;;;;;;5089174;28;20024;-66
2024/01/29 08:50:20;;;;;;;11.30;5.95;;;10.80;99.90;;;;;;5086415;28;20036;-66
2024/01/29 08:52:46;;;;;;;8.40;5.72;;;10.60;99.90;;;;;;5089072;28;20086;-66
2024/01/29 08:55:11;;;;;;;8.70;6.00;;;10.50;99.90;;;;;;5089099;28;20028;-66
2024/01/29 08:57:37;;;;;;;7.72;5.95;;;10.50;99.90;;;;;;5089088;28;20032;-66
2024/01/29 09:00:04;;;;;;;8.40;6.25;;;10.40;99.90;;;;;;5088829;28;20024;-66
2024/01/29 09:02:31;;;;;;;8.23;5.80;;;10.40;99.90;;;;;;5088967;28;20082;-66
2024/01/29 09:04:57;;;;;;;9.07;5.85;;;10.40;99.90;;;;;;5088914;28;20032;-67
2024/01/29 09:07:23;;;;;;;8.73;5.78;;;10.40;99.90;;;;;;5077884;28;20032;-67
2024/01/29 09:09:48;;;;;;;7.40;5.95;;;10.40;99.90;;;;;;5088683;28;20048;-66
2024/01/29 09:12:14;;;;;;;7.57;5.80;;;10.50;99.90;;;;;;5088756;28;20047;-66
2024/01/29 09:14:40;;;;;;;7.28;5.20;;;10.50;99.90;;;;;;5089077;28;20056;-66
2024/01/29 09:17:05;;;;;;;7.82;5.22;;;10.50;99.90;;;;;;5088373;28;20173;-66
2024/01/29 09:19:31;;;;;;;8.52;5.70;;;10.60;99.90;;;;;;5088671;28;20556;-66
2024/01/29 09:21:56;;;;;;;8.50;5.47;;;10.60;99.90;;;;;;5088556;28;20025;-67
2024/01/29 09:24:22;;;;;;;8.73;5.35;;;10.70;99.90;;;;;;5088981;28;20036;-66
2024/01/29 09:26:48;;;;;;;9.18;5.40;;;10.80;99.90;;;;;;5088457;28;20109;-66
2024/01/29 09:29:13;;;;;;;8.55;5.28;;;10.80;99.90;;;;;;5088177;28;20040;-66
2024/01/29 09:31:42;;;;;;;8.60;5.65;;;10.90;99.90;;;;;;5088089;28;20031;-66
2024/01/29 09:34:08;;;;;;;10.05;5.70;;;10.90;99.90;;;;;;5088259;28;20028;-66
2024/01/29 09:36:35;;;;;;;6.07;5.10;;;11.00;99.90;;;;;;5088611;28;20099;-66
2024/01/29 09:39:00;;;;;;;7.70;5.35;;;11.00;99.90;;;;;;5088081;28;20383;-66
2024/01/29 09:41:33;;;;;;;6.80;5.28;;;11.10;99.90;;;;;;5075588;28;20023;-65
2024/01/29 09:44:01;;;;;;;8.60;5.65;;;11.10;99.90;;;;;;5074495;28;20085;-66
2024/01/29 09:46:28;;;;;;;8.23;5.25;;;11.20;99.90;;;;;;5074262;28;20478;-66
2024/01/29 09:48:55;;;;;;;8.35;5.50;;;11.20;99.90;;;;;;5074550;28;20032;-66
2024/01/29 09:51:22;;;;;;;7.20;5.00;;;11.30;99.90;;;;;;5068147;28;20094;-66
2024/01/29 09:53:50;;;;;;;7.20;4.70;;;11.40;99.90;;;;;;5074511;28;20036;-66
2024/01/29 09:56:16;;;;;;;8.43;5.10;;;11.40;99.90;;;;;;5074482;28;20070;-66
2024/01/29 09:58:41;;;;;;;7.63;5.00;;;11.40;99.90;;;;;;5074715;28;20025;-66
2024/01/29 10:01:12;;;;;;;7.72;5.15;;;11.50;99.90;;;;;;5074087;28;20107;-66
2024/01/29 10:03:39;;;;;;;10.20;4.95;;;11.50;99.90;;;;;;5067923;28;20052;-66
2024/01/29 10:06:06;;;;;;;7.65;4.88;;;11.60;99.90;;;;;;5073769;28;20024;-66
2024/01/29 10:08:33;;;;;;;8.40;4.85;;;11.60;99.90;;;;;;5076885;28;20101;-66
2024/01/29 10:10:58;;;;;;;11.15;5.22;;;11.70;99.90;;;;;;5094359;28;20484;-66
2024/01/29 10:13:24;;;;;;;6.50;4.68;;;11.70;99.90;;;;;;5094404;28;20103;-66
2024/01/29 10:15:52;;;;;;;6.60;4.20;;;11.80;99.90;;;;;;5083968;28;20020;-66
2024/01/29 10:18:18;;;;;;;20.50;4.75;;;11.90;99.90;;;;;;5074324;28;20071;-66
2024/01/29 10:20:43;;;;;;;7.28;4.35;;;12.40;99.90;;;;;;5074040;28;20032;-66
2024/01/29 10:23:09;;;;;;;7.20;4.20;;;12.50;99.90;;;;;;5074106;28;20465;-66
2024/01/29 10:25:38;;;;;;;7.68;4.32;;;12.60;99.90;;;;;;5073813;28;20093;-66
2024/01/29 10:28:09;;;;;;;6.75;4.07;;;12.70;99.90;;;;;;5073715;28;20024;-66
2024/01/29 10:30:35;;;;;;;6.88;3.90;;;12.70;99.90;;;;;;5073876;28;20033;-67
2024/01/29 10:33:00;;;;;;;6.63;4.15;;;12.80;99.90;;;;;;5073767;28;20032;-67
2024/01/29 10:35:26;;;;;;;6.85;4.28;;;12.90;99.90;;;;;;5070627;28;20023;-66
2024/01/29 10:38:00;;;;;;;8.27;4.40;;;12.90;99.90;;;;;;5067304;28;20028;-66
2024/01/29 10:40:27;;;;;;;10.27;3.90;;;12.90;99.90;;;;;;5087127;28;20189;-64
2024/01/29 10:42:56;;;;;;;9.48;3.95;;;13.00;99.90;;;;;;5094137;28;20111;-65
2024/01/29 10:45:22;;;;;;;7.60;3.80;;;13.10;99.90;;;;;;5082431;28;20052;-66
2024/01/29 10:47:52;;;;;;;8.68;4.40;;;13.10;99.90;;;;;;5073566;28;20043;-65
2024/01/29 10:50:19;;;;;;;8.40;4.25;;;13.00;99.90;;;;;;5073953;28;20081;-66
2024/01/29 10:52:48;;;;;;;7.22;3.75;;;13.00;99.90;;;;;;5070638;28;20551;-66
2024/01/29 10:55:15;;;;;;;11.20;4.43;;;13.00;99.90;;;;;;5057856;28;20029;-67
2024/01/29 10:57:46;;;;;;;7.18;3.90;;;13.00;99.90;;;;;;5073107;28;20027;-67
2024/01/29 11:00:14;;;;;;;6.07;3.75;;;13.00;99.90;;;;;;5053070;28;20021;-66
2024/01/29 11:02:40;;;;;;;6.45;4.00;;;13.00;99.90;;;;;;5053165;28;20464;-67
2024/01/29 11:05:07;;;;;;;6.55;4.10;;;13.00;99.90;;;;;;5056629;28;20020;-67
2024/01/29 11:07:34;;;;;;;7.63;4.20;;;13.00;99.90;;;;;;5073020;28;20546;-67
2024/01/29 11:10:15;;;;;;;5.78;3.88;;;13.00;99.90;;;;;;5073285;28;20098;-67
2024/01/29 11:12:41;;;;;;;6.80;3.78;;;13.10;99.90;;;;;;5072991;28;20414;-66
2024/01/29 11:15:09;;;;;;;5.68;3.83;;;13.10;99.90;;;;;;5073025;28;20027;-67
2024/01/29 11:17:34;;;;;;;7.70;4.15;;;13.10;99.90;;;;;;5072824;28;20406;-67
2024/01/29 11:20:09;;;;;;;5.90;3.70;;;13.10;99.90;;;;;;5072843;28;20028;-67
2024/01/29 11:22:47;;;;;;;8.00;3.70;;;13.20;99.90;;;;;;5072601;28;20039;-66
2024/01/29 11:25:16;;;;;;;8.43;3.53;;;13.20;99.90;;;;;;5068696;28;20025;-66
2024/01/29 11:27:43;;;;;;;8.43;4.00;;;13.30;99.90;;;;;;5052436;28;20036;-67
2024/01/29 11:30:22;;;;;;;7.18;3.50;;;13.30;99.90;;;;;;5052726;28;20044;-66
2024/01/29 11:32:49;;;;;;;7.47;3.70;;;13.40;99.90;;;;;;5061522;28;20036;-67
2024/01/29 11:35:19;;;;;;;6.80;3.47;;;13.40;99.90;;;;;;5054625;28;20024;-67
2024/01/29 11:37:47;;;;;;;5.32;3.53;;;13.50;99.90;;;;;;5072466;28;20514;-67
2024/01/29 11:40:33;;;;;;;7.18;3.50;;;13.50;99.90;;;;;;5061484;28;20045;-66
2024/01/29 11:43:08;;;;;;;6.03;3.80;;;13.50;99.90;;;;;;5052056;28;20028;-65
2024/01/29 11:45:35;;;;;;;5.38;3.50;;;13.60;99.90;;;;;;5059261;28;20062;-66
2024/01/29 11:48:01;;;;;;;5.97;3.30;;;13.60;99.90;;;;;;5072134;28;20502;-66
2024/01/29 11:50:28;;;;;;;5.05;3.45;;;13.70;99.90;;;;;;5072266;28;20070;-66
2024/01/29 11:52:54;;;;;;;5.40;3.30;;;13.70;99.90;;;;;;5072272;28;20469;-66
2024/01/29 11:55:22;;;;;;;7.07;3.30;;;13.80;99.90;;;;;;5071959;28;20029;-66
2024/01/29 11:57:52;;;;;;;5.15;3.28;;;13.80;99.90;;;;;;5071998;28;20482;-66
2024/01/29 12:00:21;;;;;;;7.72;3.60;;;13.80;99.90;;;;;;5068025;28;20175;-68
2024/01/29 12:02:50;;;;;;;8.05;3.40;;;13.90;99.90;;;;;;5063914;28;20024;-66
2024/01/29 12:05:17;;;;;;;7.32;3.33;;;14.10;99.90;;;;;;5073574;28;20044;-66
2024/01/29 12:07:45;;;;;;;3.90;3.00;;;14.40;99.90;;;;;;5091860;28;20099;-66
2024/01/29 12:10:11;;;;;;;5.40;3.10;;;14.50;99.90;;;;;;5076751;28;20842;-66
2024/01/29 12:12:36;;;;;;;6.15;3.47;;;14.60;99.90;;;;;;5068061;28;20092;-66
2024/01/29 12:15:03;;;;;;;5.57;3.47;;;14.70;99.90;;;;;;5054399;28;20163;-66
2024/01/29 12:17:30;;;;;;;7.20;3.40;;;14.80;99.90;;;;;;5071872;28;20501;-66
2024/01/29 12:19:56;;;;;;;5.25;3.05;;;14.90;99.90;;;;;;5071715;28;20473;-66
2024/01/29 12:22:22;;;;;;;5.93;3.40;;;15.00;99.90;;;;;;5071950;28;20021;-66
2024/01/29 12:24:48;;;;;;;8.18;3.25;;;15.00;99.90;;;;;;5071915;28;20401;-65
2024/01/29 12:27:13;;;;;;;5.20;3.50;;;15.10;99.90;;;;;;5071354;28;20091;-66
2024/01/29 12:29:40;;;;;;;5.25;3.38;;;15.10;99.90;;;;;;5071708;28;20128;-66
2024/01/29 12:32:11;;;;;;;7.38;3.53;;;15.10;99.90;;;;;;5071745;28;20532;-66
2024/01/29 12:34:45;;;;;;;5.60;3.38;;;15.00;99.90;;;;;;5071660;28;20079;-66
2024/01/29 12:37:25;;;;;;;5.03;3.17;;;15.00;99.90;;;;;;5061677;28;20074;-66
2024/01/29 12:40:00;;;;;;;7.18;3.17;;;15.00;99.90;;;;;;5057312;28;20132;-66
2024/01/29 12:42:26;;;;;;;5.22;3.03;;;15.00;99.90;;;;;;5051548;28;20029;-66
2024/01/29 12:44:51;;;;;;;5.80;3.25;;;15.10;99.90;;;;;;5051589;28;20048;-66
2024/01/29 12:47:20;;;;;;;5.80;3.25;;;15.10;99.90;;;;;;5070037;28;20027;-65
2024/01/29 12:49:47;;;;;;;7.82;3.40;;;15.20;99.90;;;;;;5085905;28;20036;-66
2024/01/29 12:52:14;;;;;;;4.90;3.03;;;15.30;99.90;;;;;;5071393;28;20038;-66
2024/01/29 12:54:39;;;;;;;4.95;3.10;;;15.40;99.90;;;;;;5071272;28;20035;-66
2024/01/29 12:57:09;;;;;;;5.60;3.08;;;15.40;99.90;;;;;;5071961;28;20028;-66
2024/01/29 12:59:35;;;;;;;4.78;3.08;;;15.40;99.90;;;;;;5071504;28;20029;-65
2024/01/29 13:02:01;;;;;;;6.63;3.15;;;15.50;99.90;;;;;;5071371;28;20451;-66
2024/01/29 13:04:27;;;;;;;7.43;3.50;;;15.50;99.90;;;;;;5071698;28;20107;-66